sensor_id;sensor_type;location;lat;lon;timestamp;P1;durP1;ratioP1;P2;durP2;ratioP2
59016;SDS011;44800;55.600;38.134;2022-08-19T00:01:23;10.35;;;4.70;;
59016;SDS011;44800;55.600;38.134;2022-08-19T00:03:57;8.65;;;4.82;;
59016;SDS011;44800;55.600;38.134;2022-08-19T00:06:25;11.68;;;4.90;;
59016;SDS011;44800;55.600;38.134;2022-08-19T00:08:54;6.88;;;4.93;;
59016;SDS011;44800;55.600;38.134;2022-08-19T00:11:22;9.63;;;4.88;;
59016;SDS011;44800;55.600;38.134;2022-08-19T00:13:51;6.13;;;4.68;;
59016;SDS011;44800;55.600;38.134;2022-08-19T00:16:22;10.88;;;5.07;;
59016;SDS011;44800;55.600;38.134;2022-08-19T00:18:52;6.80;;;4.65;;
59016;SDS011;44800;55.600;38.134;2022-08-19T00:21:21;8.00;;;4.90;;
59016;SDS011;44800;55.600;38.134;2022-08-19T00:23:49;8.48;;;4.97;;
59016;SDS011;44800;55.600;38.134;2022-08-19T00:26:17;5.07;;;3.90;;
59016;SDS011;44800;55.600;38.134;2022-08-19T00:28:46;7.32;;;4.68;;
59016;SDS011;44800;55.600;38.134;2022-08-19T00:31:14;5.95;;;4.63;;
59016;SDS011;44800;55.600;38.134;2022-08-19T00:33:42;5.93;;;4.43;;
59016;SDS011;44800;55.600;38.134;2022-08-19T00:36:11;9.82;;;5.03;;
59016;SDS011;44800;55.600;38.134;2022-08-19T00:38:40;10.50;;;4.68;;
59016;SDS011;44800;55.600;38.134;2022-08-19T00:41:09;6.50;;;4.13;;
59016;SDS011;44800;55.600;38.134;2022-08-19T00:43:38;7.13;;;4.20;;
59016;SDS011;44800;55.600;38.134;2022-08-19T00:46:06;4.10;;;3.70;;
59016;SDS011;44800;55.600;38.134;2022-08-19T00:48:35;4.45;;;3.67;;
59016;SDS011;44800;55.600;38.134;2022-08-19T00:51:03;6.40;;;4.57;;
59016;SDS011;44800;55.600;38.134;2022-08-19T00:53:31;7.15;;;4.50;;
59016;SDS011;44800;55.600;38.134;2022-08-19T00:56:02;5.90;;;3.78;;
59016;SDS011;44800;55.600;38.134;2022-08-19T00:58:33;5.07;;;4.13;;
59016;SDS011;44800;55.600;38.134;2022-08-19T01:01:02;8.32;;;4.03;;
59016;SDS011;44800;55.600;38.134;2022-08-19T01:03:30;8.10;;;4.10;;
59016;SDS011;44800;55.600;38.134;2022-08-19T01:06:18;8.32;;;4.00;;
59016;SDS011;44800;55.600;38.134;2022-08-19T01:08:46;4.22;;;3.50;;
59016;SDS011;44800;55.600;38.134;2022-08-19T01:11:17;6.82;;;3.78;;
59016;SDS011;44800;55.600;38.134;2022-08-19T01:13:45;7.50;;;4.03;;
59016;SDS011;44800;55.600;38.134;2022-08-19T01:16:16;5.22;;;4.13;;
59016;SDS011;44800;55.600;38.134;2022-08-19T01:18:44;8.40;;;4.20;;
59016;SDS011;44800;55.600;38.134;2022-08-19T01:21:15;8.10;;;4.15;;
59016;SDS011;44800;55.600;38.134;2022-08-19T01:23:46;6.00;;;4.00;;
59016;SDS011;44800;55.600;38.134;2022-08-19T01:26:15;9.73;;;3.78;;
59016;SDS011;44800;55.600;38.134;2022-08-19T01:28:45;7.03;;;3.85;;
59016;SDS011;44800;55.600;38.134;2022-08-19T01:31:18;7.28;;;4.05;;
59016;SDS011;44800;55.600;38.134;2022-08-19T01:33:54;5.10;;;3.53;;
59016;SDS011;44800;55.600;38.134;2022-08-19T01:36:24;7.10;;;3.95;;
59016;SDS011;44800;55.600;38.134;2022-08-19T01:38:54;7.95;;;3.95;;
59016;SDS011;44800;55.600;38.134;2022-08-19T01:41:23;5.25;;;4.03;;
59016;SDS011;44800;55.600;38.134;2022-08-19T01:43:53;5.10;;;3.05;;
59016;SDS011;44800;55.600;38.134;2022-08-19T01:46:42;8.00;;;3.63;;
59016;SDS011;44800;55.600;38.134;2022-08-19T01:49:11;6.25;;;3.80;;
59016;SDS011;44800;55.600;38.134;2022-08-19T01:51:39;5.35;;;3.63;;
59016;SDS011;44800;55.600;38.134;2022-08-19T01:54:08;8.85;;;3.95;;
59016;SDS011;44800;55.600;38.134;2022-08-19T01:56:37;5.55;;;3.60;;
59016;SDS011;44800;55.600;38.134;2022-08-19T01:59:08;8.32;;;3.60;;
59016;SDS011;44800;55.600;38.134;2022-08-19T02:01:37;6.43;;;3.70;;
59016;SDS011;44800;55.600;38.134;2022-08-19T02:04:05;5.68;;;4.00;;
59016;SDS011;44800;55.600;38.134;2022-08-19T02:06:33;8.60;;;3.83;;
59016;SDS011;44800;55.600;38.134;2022-08-19T02:09:02;8.00;;;4.18;;
59016;SDS011;44800;55.600;38.134;2022-08-19T02:11:33;7.72;;;3.60;;
59016;SDS011;44800;55.600;38.134;2022-08-19T02:14:02;9.45;;;4.10;;
59016;SDS011;44800;55.600;38.134;2022-08-19T02:16:33;14.05;;;3.72;;
59016;SDS011;44800;55.600;38.134;2022-08-19T02:19:02;5.90;;;3.60;;
59016;SDS011;44800;55.600;38.134;2022-08-19T02:21:30;10.25;;;3.72;;
59016;SDS011;44800;55.600;38.134;2022-08-19T02:23:58;7.43;;;3.53;;
59016;SDS011;44800;55.600;38.134;2022-08-19T02:26:26;6.95;;;3.40;;
59016;SDS011;44800;55.600;38.134;2022-08-19T02:28:56;5.72;;;3.22;;
59016;SDS011;44800;55.600;38.134;2022-08-19T02:31:25;7.45;;;4.82;;
59016;SDS011;44800;55.600;38.134;2022-08-19T02:33:54;5.57;;;3.33;;
59016;SDS011;44800;55.600;38.134;2022-08-19T02:36:23;13.10;;;3.80;;
59016;SDS011;44800;55.600;38.134;2022-08-19T02:38:51;6.45;;;3.60;;
59016;SDS011;44800;55.600;38.134;2022-08-19T02:41:21;4.53;;;3.75;;
59016;SDS011;44800;55.600;38.134;2022-08-19T02:43:52;5.38;;;3.83;;
59016;SDS011;44800;55.600;38.134;2022-08-19T02:46:42;16.25;;;5.30;;
59016;SDS011;44800;55.600;38.134;2022-08-19T02:49:11;5.70;;;3.88;;
59016;SDS011;44800;55.600;38.134;2022-08-19T02:51:43;5.88;;;3.47;;
59016;SDS011;44800;55.600;38.134;2022-08-19T02:54:12;10.75;;;4.25;;
59016;SDS011;44800;55.600;38.134;2022-08-19T02:56:40;7.82;;;3.95;;
59016;SDS011;44800;55.600;38.134;2022-08-19T02:59:09;6.60;;;3.70;;
59016;SDS011;44800;55.600;38.134;2022-08-19T03:01:39;7.50;;;3.70;;
59016;SDS011;44800;55.600;38.134;2022-08-19T03:04:10;5.20;;;4.05;;
59016;SDS011;44800;55.600;38.134;2022-08-19T03:06:40;20.98;;;4.85;;
59016;SDS011;44800;55.600;38.134;2022-08-19T03:09:08;8.15;;;4.22;;
59016;SDS011;44800;55.600;38.134;2022-08-19T03:11:36;6.10;;;3.92;;
59016;SDS011;44800;55.600;38.134;2022-08-19T03:14:05;8.13;;;4.45;;
59016;SDS011;44800;55.600;38.134;2022-08-19T03:16:35;7.40;;;5.25;;
59016;SDS011;44800;55.600;38.134;2022-08-19T03:19:06;8.52;;;4.70;;
59016;SDS011;44800;55.600;38.134;2022-08-19T03:21:35;11.52;;;4.45;;
59016;SDS011;44800;55.600;38.134;2022-08-19T03:24:05;5.25;;;3.90;;
59016;SDS011;44800;55.600;38.134;2022-08-19T03:26:37;12.82;;;4.45;;
59016;SDS011;44800;55.600;38.134;2022-08-19T03:29:05;6.03;;;4.82;;
59016;SDS011;44800;55.600;38.134;2022-08-19T03:31:35;5.57;;;4.00;;
59016;SDS011;44800;55.600;38.134;2022-08-19T03:34:10;8.75;;;4.55;;
59016;SDS011;44800;55.600;38.134;2022-08-19T03:36:40;25.17;;;6.10;;
59016;SDS011;44800;55.600;38.134;2022-08-19T03:39:09;6.22;;;5.00;;
59016;SDS011;44800;55.600;38.134;2022-08-19T03:41:39;7.72;;;4.30;;
59016;SDS011;44800;55.600;38.134;2022-08-19T03:44:11;8.60;;;4.38;;
59016;SDS011;44800;55.600;38.134;2022-08-19T03:46:45;8.48;;;4.93;;
59016;SDS011;44800;55.600;38.134;2022-08-19T03:49:14;7.72;;;5.82;;
59016;SDS011;44800;55.600;38.134;2022-08-19T03:51:46;7.50;;;4.38;;
59016;SDS011;44800;55.600;38.134;2022-08-19T03:54:15;8.93;;;4.10;;
59016;SDS011;44800;55.600;38.134;2022-08-19T03:56:46;7.10;;;4.57;;
59016;SDS011;44800;55.600;38.134;2022-08-19T03:59:15;6.85;;;4.50;;
59016;SDS011;44800;55.600;38.134;2022-08-19T04:01:43;7.60;;;5.20;;
59016;SDS011;44800;55.600;38.134;2022-08-19T04:04:12;11.32;;;4.78;;
59016;SDS011;44800;55.600;38.134;2022-08-19T04:06:40;9.65;;;4.30;;
59016;SDS011;44800;55.600;38.134;2022-08-19T04:09:10;9.48;;;4.75;;
59016;SDS011;44800;55.600;38.134;2022-08-19T04:11:38;7.72;;;5.53;;
59016;SDS011;44800;55.600;38.134;2022-08-19T04:14:10;7.53;;;3.92;;
59016;SDS011;44800;55.600;38.134;2022-08-19T04:16:38;5.13;;;4.25;;
59016;SDS011;44800;55.600;38.134;2022-08-19T04:19:06;6.60;;;4.28;;
59016;SDS011;44800;55.600;38.134;2022-08-19T04:21:35;7.30;;;4.47;;
59016;SDS011;44800;55.600;38.134;2022-08-19T04:24:03;7.90;;;4.57;;
59016;SDS011;44800;55.600;38.134;2022-08-19T04:26:34;9.38;;;4.18;;
59016;SDS011;44800;55.600;38.134;2022-08-19T04:29:04;6.97;;;3.90;;
59016;SDS011;44800;55.600;38.134;2022-08-19T04:31:37;8.15;;;4.57;;
59016;SDS011;44800;55.600;38.134;2022-08-19T04:34:08;5.85;;;4.55;;
59016;SDS011;44800;55.600;38.134;2022-08-19T04:36:37;9.93;;;4.35;;
59016;SDS011;44800;55.600;38.134;2022-08-19T04:39:07;9.40;;;4.45;;
59016;SDS011;44800;55.600;38.134;2022-08-19T04:41:36;5.85;;;4.15;;
59016;SDS011;44800;55.600;38.134;2022-08-19T04:44:22;8.50;;;4.40;;
59016;SDS011;44800;55.600;38.134;2022-08-19T04:46:50;8.73;;;5.07;;
59016;SDS011;44800;55.600;38.134;2022-08-19T04:49:18;7.28;;;4.43;;
59016;SDS011;44800;55.600;38.134;2022-08-19T04:51:49;8.25;;;4.82;;
59016;SDS011;44800;55.600;38.134;2022-08-19T04:54:18;13.48;;;4.80;;
59016;SDS011;44800;55.600;38.134;2022-08-19T04:57:06;10.15;;;4.90;;
59016;SDS011;44800;55.600;38.134;2022-08-19T04:59:37;8.38;;;4.85;;
59016;SDS011;44800;55.600;38.134;2022-08-19T05:02:06;8.32;;;5.03;;
59016;SDS011;44800;55.600;38.134;2022-08-19T05:04:34;15.57;;;5.75;;
59016;SDS011;44800;55.600;38.134;2022-08-19T05:07:05;6.13;;;4.72;;
59016;SDS011;44800;55.600;38.134;2022-08-19T05:09:33;8.20;;;4.82;;
59016;SDS011;44800;55.600;38.134;2022-08-19T05:12:22;9.30;;;5.28;;
59016;SDS011;44800;55.600;38.134;2022-08-19T05:14:55;7.25;;;4.65;;
59016;SDS011;44800;55.600;38.134;2022-08-19T05:17:23;7.75;;;4.78;;
59016;SDS011;44800;55.600;38.134;2022-08-19T05:19:54;9.70;;;5.13;;
59016;SDS011;44800;55.600;38.134;2022-08-19T05:22:40;11.23;;;5.60;;
59016;SDS011;44800;55.600;38.134;2022-08-19T05:25:09;9.70;;;4.95;;
59016;SDS011;44800;55.600;38.134;2022-08-19T05:27:43;9.25;;;5.18;;
59016;SDS011;44800;55.600;38.134;2022-08-19T05:30:11;14.73;;;6.25;;
59016;SDS011;44800;55.600;38.134;2022-08-19T05:32:39;13.77;;;6.15;;
59016;SDS011;44800;55.600;38.134;2022-08-19T05:35:08;10.73;;;5.40;;
59016;SDS011;44800;55.600;38.134;2022-08-19T05:37:36;12.75;;;6.07;;
59016;SDS011;44800;55.600;38.134;2022-08-19T05:40:07;10.35;;;6.13;;
59016;SDS011;44800;55.600;38.134;2022-08-19T05:42:36;15.55;;;6.43;;
59016;SDS011;44800;55.600;38.134;2022-08-19T05:45:06;9.73;;;5.60;;
59016;SDS011;44800;55.600;38.134;2022-08-19T05:47:34;10.00;;;6.20;;
59016;SDS011;44800;55.600;38.134;2022-08-19T05:50:07;10.75;;;5.63;;
59016;SDS011;44800;55.600;38.134;2022-08-19T05:52:36;13.07;;;7.93;;
59016;SDS011;44800;55.600;38.134;2022-08-19T05:55:09;11.10;;;5.93;;
59016;SDS011;44800;55.600;38.134;2022-08-19T05:57:37;8.85;;;6.00;;
59016;SDS011;44800;55.600;38.134;2022-08-19T06:00:07;15.68;;;5.85;;
59016;SDS011;44800;55.600;38.134;2022-08-19T06:02:37;8.40;;;5.70;;
59016;SDS011;44800;55.600;38.134;2022-08-19T06:05:05;13.32;;;6.35;;
59016;SDS011;44800;55.600;38.134;2022-08-19T06:07:35;10.68;;;6.43;;
59016;SDS011;44800;55.600;38.134;2022-08-19T06:10:03;9.55;;;5.72;;
59016;SDS011;44800;55.600;38.134;2022-08-19T06:12:31;7.65;;;6.53;;
59016;SDS011;44800;55.600;38.134;2022-08-19T06:15:01;10.98;;;6.75;;
59016;SDS011;44800;55.600;38.134;2022-08-19T06:17:31;12.45;;;5.93;;
59016;SDS011;44800;55.600;38.134;2022-08-19T06:20:02;8.68;;;5.85;;
59016;SDS011;44800;55.600;38.134;2022-08-19T06:22:30;9.30;;;7.25;;
59016;SDS011;44800;55.600;38.134;2022-08-19T06:24:58;11.35;;;6.13;;
59016;SDS011;44800;55.600;38.134;2022-08-19T06:27:26;7.35;;;5.63;;
59016;SDS011;44800;55.600;38.134;2022-08-19T06:29:55;10.38;;;5.75;;
59016;SDS011;44800;55.600;38.134;2022-08-19T06:32:23;8.48;;;6.40;;
59016;SDS011;44800;55.600;38.134;2022-08-19T06:34:53;9.43;;;6.07;;
59016;SDS011;44800;55.600;38.134;2022-08-19T06:37:21;8.68;;;5.68;;
59016;SDS011;44800;55.600;38.134;2022-08-19T06:39:49;9.65;;;6.10;;
59016;SDS011;44800;55.600;38.134;2022-08-19T06:42:17;8.45;;;6.07;;
59016;SDS011;44800;55.600;38.134;2022-08-19T06:44:49;7.95;;;5.72;;
59016;SDS011;44800;55.600;38.134;2022-08-19T06:47:19;7.80;;;5.72;;
59016;SDS011;44800;55.600;38.134;2022-08-19T06:49:54;6.53;;;5.90;;
59016;SDS011;44800;55.600;38.134;2022-08-19T06:52:30;8.70;;;5.45;;
59016;SDS011;44800;55.600;38.134;2022-08-19T06:55:02;9.23;;;5.65;;
59016;SDS011;44800;55.600;38.134;2022-08-19T06:57:32;6.05;;;5.35;;
59016;SDS011;44800;55.600;38.134;2022-08-19T07:00:00;9.15;;;5.57;;
59016;SDS011;44800;55.600;38.134;2022-08-19T07:02:29;15.05;;;6.07;;
59016;SDS011;44800;55.600;38.134;2022-08-19T07:04:59;11.77;;;5.55;;
59016;SDS011;44800;55.600;38.134;2022-08-19T07:07:32;9.95;;;5.60;;
59016;SDS011;44800;55.600;38.134;2022-08-19T07:10:01;8.38;;;5.38;;
59016;SDS011;44800;55.600;38.134;2022-08-19T07:12:33;7.60;;;5.97;;
59016;SDS011;44800;55.600;38.134;2022-08-19T07:15:04;7.95;;;5.35;;
59016;SDS011;44800;55.600;38.134;2022-08-19T07:17:32;7.75;;;4.43;;
59016;SDS011;44800;55.600;38.134;2022-08-19T07:20:03;10.15;;;5.90;;
59016;SDS011;44800;55.600;38.134;2022-08-19T07:22:35;6.72;;;4.68;;
59016;SDS011;44800;55.600;38.134;2022-08-19T07:25:05;10.82;;;5.60;;
59016;SDS011;44800;55.600;38.134;2022-08-19T07:27:33;8.55;;;5.32;;
59016;SDS011;44800;55.600;38.134;2022-08-19T07:30:02;8.23;;;5.00;;
59016;SDS011;44800;55.600;38.134;2022-08-19T07:32:31;4.88;;;4.20;;
59016;SDS011;44800;55.600;38.134;2022-08-19T07:34:59;7.32;;;5.07;;
59016;SDS011;44800;55.600;38.134;2022-08-19T07:37:32;9.82;;;5.03;;
59016;SDS011;44800;55.600;38.134;2022-08-19T07:40:04;6.68;;;4.63;;
59016;SDS011;44800;55.600;38.134;2022-08-19T07:42:32;6.32;;;4.72;;
59016;SDS011;44800;55.600;38.134;2022-08-19T07:45:00;9.52;;;5.10;;
59016;SDS011;44800;55.600;38.134;2022-08-19T07:47:28;24.90;;;5.15;;
59016;SDS011;44800;55.600;38.134;2022-08-19T07:50:16;15.82;;;5.22;;
59016;SDS011;44800;55.600;38.134;2022-08-19T07:52:47;13.55;;;5.35;;
59016;SDS011;44800;55.600;38.134;2022-08-19T07:55:17;8.20;;;4.68;;
59016;SDS011;44800;55.600;38.134;2022-08-19T07:58:06;6.82;;;4.53;;
59016;SDS011;44800;55.600;38.134;2022-08-19T08:00:34;11.27;;;4.43;;
59016;SDS011;44800;55.600;38.134;2022-08-19T08:03:02;14.73;;;4.55;;
59016;SDS011;44800;55.600;38.134;2022-08-19T08:05:30;11.55;;;5.07;;
59016;SDS011;44800;55.600;38.134;2022-08-19T08:08:18;8.43;;;4.55;;
59016;SDS011;44800;55.600;38.134;2022-08-19T08:11:11;8.02;;;3.92;;
59016;SDS011;44800;55.600;38.134;2022-08-19T08:13:41;7.82;;;4.93;;
59016;SDS011;44800;55.600;38.134;2022-08-19T08:16:09;8.00;;;4.95;;
59016;SDS011;44800;55.600;38.134;2022-08-19T08:18:39;7.20;;;4.55;;
59016;SDS011;44800;55.600;38.134;2022-08-19T08:21:18;5.00;;;3.97;;
59016;SDS011;44800;55.600;38.134;2022-08-19T08:23:47;9.13;;;4.70;;
59016;SDS011;44800;55.600;38.134;2022-08-19T08:26:19;8.60;;;4.43;;
59016;SDS011;44800;55.600;38.134;2022-08-19T08:28:47;9.48;;;4.80;;
59016;SDS011;44800;55.600;38.134;2022-08-19T08:31:16;6.30;;;4.00;;
59016;SDS011;44800;55.600;38.134;2022-08-19T08:33:45;12.13;;;5.35;;
59016;SDS011;44800;55.600;38.134;2022-08-19T08:36:13;9.73;;;5.55;;
59016;SDS011;44800;55.600;38.134;2022-08-19T08:38:42;9.82;;;4.55;;
59016;SDS011;44800;55.600;38.134;2022-08-19T08:41:16;11.82;;;4.43;;
59016;SDS011;44800;55.600;38.134;2022-08-19T08:43:47;4.70;;;4.28;;
59016;SDS011;44800;55.600;38.134;2022-08-19T08:46:19;5.78;;;3.85;;
59016;SDS011;44800;55.600;38.134;2022-08-19T08:48:59;6.70;;;4.57;;
59016;SDS011;44800;55.600;38.134;2022-08-19T08:51:32;7.70;;;4.45;;
59016;SDS011;44800;55.600;38.134;2022-08-19T08:54:01;6.57;;;4.20;;
59016;SDS011;44800;55.600;38.134;2022-08-19T08:56:31;11.05;;;4.78;;
59016;SDS011;44800;55.600;38.134;2022-08-19T08:59:01;6.18;;;4.60;;
59016;SDS011;44800;55.600;38.134;2022-08-19T09:01:30;5.15;;;4.60;;
59016;SDS011;44800;55.600;38.134;2022-08-19T09:03:58;10.32;;;4.53;;
59016;SDS011;44800;55.600;38.134;2022-08-19T09:06:31;5.20;;;3.83;;
59016;SDS011;44800;55.600;38.134;2022-08-19T09:09:01;6.80;;;3.72;;
59016;SDS011;44800;55.600;38.134;2022-08-19T09:11:43;6.57;;;3.70;;
59016;SDS011;44800;55.600;38.134;2022-08-19T09:14:16;7.78;;;3.60;;
59016;SDS011;44800;55.600;38.134;2022-08-19T09:17:05;9.07;;;3.08;;
59016;SDS011;44800;55.600;38.134;2022-08-19T09:19:34;7.43;;;3.97;;
59016;SDS011;44800;55.600;38.134;2022-08-19T09:22:02;11.20;;;5.53;;
59016;SDS011;44800;55.600;38.134;2022-08-19T09:24:31;11.75;;;4.40;;
59016;SDS011;44800;55.600;38.134;2022-08-19T09:27:01;8.77;;;4.68;;
59016;SDS011;44800;55.600;38.134;2022-08-19T09:29:44;8.10;;;4.05;;
59016;SDS011;44800;55.600;38.134;2022-08-19T09:32:15;6.15;;;3.33;;
59016;SDS011;44800;55.600;38.134;2022-08-19T09:34:52;6.18;;;3.55;;
59016;SDS011;44800;55.600;38.134;2022-08-19T09:37:21;4.85;;;3.33;;
59016;SDS011;44800;55.600;38.134;2022-08-19T09:39:50;5.43;;;3.03;;
59016;SDS011;44800;55.600;38.134;2022-08-19T09:42:20;3.85;;;3.40;;
59016;SDS011;44800;55.600;38.134;2022-08-19T09:45:00;4.78;;;3.80;;
59016;SDS011;44800;55.600;38.134;2022-08-19T09:47:30;5.15;;;3.58;;
59016;SDS011;44800;55.600;38.134;2022-08-19T09:49:59;3.17;;;2.88;;
59016;SDS011;44800;55.600;38.134;2022-08-19T09:52:27;15.18;;;4.15;;
59016;SDS011;44800;55.600;38.134;2022-08-19T09:54:58;5.15;;;3.58;;
59016;SDS011;44800;55.600;38.134;2022-08-19T09:57:34;5.72;;;3.53;;
59016;SDS011;44800;55.600;38.134;2022-08-19T10:00:03;7.93;;;3.03;;
59016;SDS011;44800;55.600;38.134;2022-08-19T10:02:31;5.60;;;3.97;;
59016;SDS011;44800;55.600;38.134;2022-08-19T10:04:59;6.57;;;3.75;;
59016;SDS011;44800;55.600;38.134;2022-08-19T10:07:52;7.55;;;3.70;;
59016;SDS011;44800;55.600;38.134;2022-08-19T10:10:22;17.25;;;4.90;;
59016;SDS011;44800;55.600;38.134;2022-08-19T10:12:51;4.53;;;4.10;;
59016;SDS011;44800;55.600;38.134;2022-08-19T10:15:21;7.32;;;4.28;;
59016;SDS011;44800;55.600;38.134;2022-08-19T10:17:55;6.47;;;4.43;;
59016;SDS011;44800;55.600;38.134;2022-08-19T10:20:24;8.38;;;4.75;;
59016;SDS011;44800;55.600;38.134;2022-08-19T10:22:52;6.20;;;4.07;;
59016;SDS011;44800;55.600;38.134;2022-08-19T10:25:21;7.88;;;5.70;;
59016;SDS011;44800;55.600;38.134;2022-08-19T10:27:49;5.25;;;4.65;;
59016;SDS011;44800;55.600;38.134;2022-08-19T10:30:22;11.43;;;4.90;;
59016;SDS011;44800;55.600;38.134;2022-08-19T10:32:50;12.70;;;5.53;;
59016;SDS011;44800;55.600;38.134;2022-08-19T10:35:18;6.55;;;4.18;;
59016;SDS011;44800;55.600;38.134;2022-08-19T10:37:48;9.43;;;4.85;;
59016;SDS011;44800;55.600;38.134;2022-08-19T10:40:23;5.75;;;4.30;;
59016;SDS011;44800;55.600;38.134;2022-08-19T10:42:51;8.48;;;4.30;;
59016;SDS011;44800;55.600;38.134;2022-08-19T10:45:19;5.88;;;5.05;;
59016;SDS011;44800;55.600;38.134;2022-08-19T10:47:55;5.38;;;4.18;;
59016;SDS011;44800;55.600;38.134;2022-08-19T10:50:25;7.70;;;3.72;;
59016;SDS011;44800;55.600;38.134;2022-08-19T10:53:11;8.80;;;4.30;;
59016;SDS011;44800;55.600;38.134;2022-08-19T10:55:39;9.75;;;4.25;;
59016;SDS011;44800;55.600;38.134;2022-08-19T10:58:25;6.85;;;4.32;;
59016;SDS011;44800;55.600;38.134;2022-08-19T11:00:54;7.30;;;4.65;;
59016;SDS011;44800;55.600;38.134;2022-08-19T11:03:24;10.73;;;4.20;;
59016;SDS011;44800;55.600;38.134;2022-08-19T11:05:58;6.63;;;3.85;;
59016;SDS011;44800;55.600;38.134;2022-08-19T11:08:26;4.75;;;4.10;;
59016;SDS011;44800;55.600;38.134;2022-08-19T11:10:54;9.82;;;4.47;;
59016;SDS011;44800;55.600;38.134;2022-08-19T11:13:24;9.25;;;4.10;;
59016;SDS011;44800;55.600;38.134;2022-08-19T11:15:59;6.93;;;3.95;;
59016;SDS011;44800;55.600;38.134;2022-08-19T11:18:37;7.50;;;4.43;;
59016;SDS011;44800;55.600;38.134;2022-08-19T11:21:09;5.45;;;4.80;;
59016;SDS011;44800;55.600;38.134;2022-08-19T11:23:38;8.55;;;4.20;;
59016;SDS011;44800;55.600;38.134;2022-08-19T11:26:06;4.75;;;3.80;;
59016;SDS011;44800;55.600;38.134;2022-08-19T11:28:38;7.85;;;4.10;;
59016;SDS011;44800;55.600;38.134;2022-08-19T11:31:09;10.95;;;4.85;;
59016;SDS011;44800;55.600;38.134;2022-08-19T11:33:43;4.40;;;3.92;;
59016;SDS011;44800;55.600;38.134;2022-08-19T11:36:13;6.15;;;4.88;;
59016;SDS011;44800;55.600;38.134;2022-08-19T11:38:41;6.68;;;4.78;;
59016;SDS011;44800;55.600;38.134;2022-08-19T11:41:15;4.82;;;3.95;;
59016;SDS011;44800;55.600;38.134;2022-08-19T11:43:44;5.47;;;4.28;;
59016;SDS011;44800;55.600;38.134;2022-08-19T11:46:13;7.65;;;4.55;;
59016;SDS011;44800;55.600;38.134;2022-08-19T11:48:42;8.77;;;4.60;;
59016;SDS011;44800;55.600;38.134;2022-08-19T11:51:12;7.90;;;3.95;;
59016;SDS011;44800;55.600;38.134;2022-08-19T11:53:41;8.80;;;4.63;;
59016;SDS011;44800;55.600;38.134;2022-08-19T11:56:09;7.05;;;4.82;;
59016;SDS011;44800;55.600;38.134;2022-08-19T11:58:39;14.82;;;9.18;;
59016;SDS011;44800;55.600;38.134;2022-08-19T12:01:08;11.07;;;8.05;;
59016;SDS011;44800;55.600;38.134;2022-08-19T12:03:37;19.65;;;9.43;;
59016;SDS011;44800;55.600;38.134;2022-08-19T12:06:08;10.82;;;6.50;;
59016;SDS011;44800;55.600;38.134;2022-08-19T12:08:36;13.07;;;5.38;;
59016;SDS011;44800;55.600;38.134;2022-08-19T12:11:05;10.65;;;5.75;;
59016;SDS011;44800;55.600;38.134;2022-08-19T12:13:34;16.50;;;6.80;;
59016;SDS011;44800;55.600;38.134;2022-08-19T12:16:06;11.43;;;7.53;;
59016;SDS011;44800;55.600;38.134;2022-08-19T12:18:36;14.57;;;6.93;;
59016;SDS011;44800;55.600;38.134;2022-08-19T12:21:04;8.65;;;5.43;;
59016;SDS011;44800;55.600;38.134;2022-08-19T12:23:34;13.45;;;5.53;;
59016;SDS011;44800;55.600;38.134;2022-08-19T12:26:04;5.45;;;4.30;;
59016;SDS011;44800;55.600;38.134;2022-08-19T12:28:32;12.80;;;5.75;;
59016;SDS011;44800;55.600;38.134;2022-08-19T12:31:00;8.40;;;5.63;;
59016;SDS011;44800;55.600;38.134;2022-08-19T12:33:28;6.55;;;5.03;;
59016;SDS011;44800;55.600;38.134;2022-08-19T12:36:00;12.77;;;6.13;;
59016;SDS011;44800;55.600;38.134;2022-08-19T12:38:28;6.47;;;4.75;;
59016;SDS011;44800;55.600;38.134;2022-08-19T12:40:58;9.73;;;5.10;;
59016;SDS011;44800;55.600;38.134;2022-08-19T12:43:26;7.10;;;3.83;;
59016;SDS011;44800;55.600;38.134;2022-08-19T12:45:55;10.85;;;5.07;;
59016;SDS011;44800;55.600;38.134;2022-08-19T12:48:24;8.27;;;4.38;;
59016;SDS011;44800;55.600;38.134;2022-08-19T12:50:59;10.88;;;5.10;;
59016;SDS011;44800;55.600;38.134;2022-08-19T12:53:28;8.65;;;5.57;;
59016;SDS011;44800;55.600;38.134;2022-08-19T12:56:01;9.68;;;5.07;;
59016;SDS011;44800;55.600;38.134;2022-08-19T12:58:33;8.85;;;5.10;;
59016;SDS011;44800;55.600;38.134;2022-08-19T13:01:05;6.93;;;4.35;;
59016;SDS011;44800;55.600;38.134;2022-08-19T13:03:34;9.52;;;4.43;;
59016;SDS011;44800;55.600;38.134;2022-08-19T13:06:06;7.60;;;4.95;;
59016;SDS011;44800;55.600;38.134;2022-08-19T13:08:34;7.47;;;4.60;;
59016;SDS011;44800;55.600;38.134;2022-08-19T13:11:11;8.07;;;5.57;;
59016;SDS011;44800;55.600;38.134;2022-08-19T13:13:40;7.43;;;6.15;;
59016;SDS011;44800;55.600;38.134;2022-08-19T13:16:09;11.05;;;5.00;;
59016;SDS011;44800;55.600;38.134;2022-08-19T13:18:37;9.35;;;5.18;;
59016;SDS011;44800;55.600;38.134;2022-08-19T13:21:07;7.88;;;5.90;;
59016;SDS011;44800;55.600;38.134;2022-08-19T13:23:36;6.55;;;5.15;;
59016;SDS011;44800;55.600;38.134;2022-08-19T13:26:05;6.68;;;5.82;;
59016;SDS011;44800;55.600;38.134;2022-08-19T13:28:35;5.85;;;5.15;;
59016;SDS011;44800;55.600;38.134;2022-08-19T13:31:22;9.68;;;5.78;;
59016;SDS011;44800;55.600;38.134;2022-08-19T13:34:14;9.07;;;5.35;;
59016;SDS011;44800;55.600;38.134;2022-08-19T13:36:42;17.98;;;7.25;;
59016;SDS011;44800;55.600;38.134;2022-08-19T13:39:10;10.77;;;9.45;;
59016;SDS011;44800;55.600;38.134;2022-08-19T13:41:42;11.30;;;7.32;;
59016;SDS011;44800;55.600;38.134;2022-08-19T13:44:15;10.95;;;6.55;;
59016;SDS011;44800;55.600;38.134;2022-08-19T13:46:44;13.10;;;9.27;;
59016;SDS011;44800;55.600;38.134;2022-08-19T13:49:13;14.98;;;11.38;;
59016;SDS011;44800;55.600;38.134;2022-08-19T13:51:42;13.15;;;9.43;;
59016;SDS011;44800;55.600;38.134;2022-08-19T13:54:10;18.50;;;12.80;;
59016;SDS011;44800;55.600;38.134;2022-08-19T13:56:39;15.85;;;14.07;;
59016;SDS011;44800;55.600;38.134;2022-08-19T13:59:08;13.63;;;12.18;;
59016;SDS011;44800;55.600;38.134;2022-08-19T14:01:39;15.57;;;13.75;;
59016;SDS011;44800;55.600;38.134;2022-08-19T14:04:08;19.17;;;13.68;;
59016;SDS011;44800;55.600;38.134;2022-08-19T14:06:36;15.85;;;13.32;;
59016;SDS011;44800;55.600;38.134;2022-08-19T14:09:04;14.75;;;11.75;;
59016;SDS011;44800;55.600;38.134;2022-08-19T14:11:34;14.45;;;9.50;;
59016;SDS011;44800;55.600;38.134;2022-08-19T14:14:01;15.15;;;10.93;;
59016;SDS011;44800;55.600;38.134;2022-08-19T14:16:30;13.68;;;9.80;;
59016;SDS011;44800;55.600;38.134;2022-08-19T14:18:59;13.20;;;9.90;;
59016;SDS011;44800;55.600;38.134;2022-08-19T14:21:27;9.73;;;8.63;;
59016;SDS011;44800;55.600;38.134;2022-08-19T14:23:55;11.57;;;7.97;;
59016;SDS011;44800;55.600;38.134;2022-08-19T14:26:23;10.60;;;6.85;;
59016;SDS011;44800;55.600;38.134;2022-08-19T14:28:51;10.85;;;6.32;;
59016;SDS011;44800;55.600;38.134;2022-08-19T14:31:21;7.93;;;6.43;;
59016;SDS011;44800;55.600;38.134;2022-08-19T14:33:56;6.55;;;5.85;;
59016;SDS011;44800;55.600;38.134;2022-08-19T14:36:27;12.25;;;6.70;;
59016;SDS011;44800;55.600;38.134;2022-08-19T14:38:55;8.75;;;5.95;;
59016;SDS011;44800;55.600;38.134;2022-08-19T14:41:42;11.20;;;6.03;;
59016;SDS011;44800;55.600;38.134;2022-08-19T14:44:11;6.07;;;5.47;;
59016;SDS011;44800;55.600;38.134;2022-08-19T14:46:41;9.95;;;5.53;;
59016;SDS011;44800;55.600;38.134;2022-08-19T14:49:15;11.55;;;5.82;;
59016;SDS011;44800;55.600;38.134;2022-08-19T14:51:44;8.35;;;5.00;;